createdAt,value
2018-09-01T00:01:33.590Z,100367.41
2018-09-01T00:04:02.513Z,100365.30
2018-09-01T00:06:31.373Z,100361.87
2018-09-01T00:09:00.358Z,100363.67
2018-09-01T00:11:28.986Z,100363.77
2018-09-01T00:13:57.841Z,100367.39
2018-09-01T00:16:26.501Z,100365.67
2018-09-01T00:18:55.197Z,100363.48
2018-09-01T00:21:24.913Z,100358.23
2018-09-01T00:23:53.909Z,100356.55
2018-09-01T00:26:22.663Z,100359.41
2018-09-01T00:28:51.606Z,100358.26
2018-09-01T00:31:20.705Z,100361.02
2018-09-01T00:33:49.351Z,100371.23
2018-09-01T00:36:19.077Z,100367.22
2018-09-01T00:38:53.016Z,100365.41
2018-09-01T00:41:21.627Z,100371.23
2018-09-01T00:43:51.472Z,100367.79
2018-09-01T00:46:20.137Z,100367.79
2018-09-01T00:48:48.808Z,100360.73
2018-09-01T00:51:17.477Z,100355.96
2018-09-01T00:53:46.290Z,100352.81
2018-09-01T00:56:14.874Z,100349.29
2018-09-01T00:58:45.628Z,100355.58
2018-09-01T01:01:14.404Z,100354.16
2018-09-01T01:03:44.260Z,100358.54
2018-09-01T01:06:14.026Z,100353.48
2018-09-01T01:08:44.049Z,100351.77
2018-09-01T01:11:12.970Z,100357.11
2018-09-01T01:13:42.066Z,100350.91
2018-09-01T01:16:10.827Z,100353.58
2018-09-01T01:18:39.618Z,100354.44
2018-09-01T01:21:08.359Z,100368.55
2018-09-01T01:23:37.221Z,100366.75
2018-09-01T01:26:05.947Z,100373.71
2018-09-01T01:28:35.746Z,100377.23
2018-09-01T01:31:04.610Z,100380.58
2018-09-01T01:33:34.285Z,100379.98
2018-09-01T01:36:03.028Z,100376.36
2018-09-01T01:38:31.698Z,100384.37
2018-09-01T01:41:00.449Z,100375.02
2018-09-01T01:43:29.279Z,100375.02
2018-09-01T01:45:58.001Z,100379.89
2018-09-01T01:48:26.665Z,100376.84
2018-09-01T01:50:55.383Z,100376.84
2018-09-01T01:53:24.007Z,100378.17
2018-09-01T01:55:52.929Z,100386.18
2018-09-01T01:58:22.289Z,100386.66
2018-09-01T02:00:51.324Z,100382.65
2018-09-01T02:03:20.033Z,100386.56
2018-09-01T02:05:48.789Z,100380.36
2018-09-01T02:08:17.513Z,100384.37
2018-09-01T02:10:46.220Z,100377.70
2018-09-01T02:13:14.988Z,100379.03
2018-09-01T02:15:43.614Z,100374.16
2018-09-01T02:18:12.402Z,100373.30
2018-09-01T02:20:41.666Z,100372.83
2018-09-01T02:23:10.433Z,100370.25
2018-09-01T02:25:39.123Z,100371.02
2018-09-01T02:28:07.897Z,100370.16
2018-09-01T02:30:36.590Z,100369.78
2018-09-01T02:33:05.505Z,100367.97
2018-09-01T02:35:34.163Z,100367.58
2018-09-01T02:38:02.799Z,100367.97
2018-09-01T02:40:31.760Z,100367.23
2018-09-01T02:43:00.434Z,100363.23
2018-09-01T02:45:29.196Z,100366.56
2018-09-01T02:47:59.864Z,100358.83
2018-09-01T02:50:28.528Z,100354.63
2018-09-01T02:52:57.458Z,100352.53
2018-09-01T02:55:26.088Z,100354.81
2018-09-01T02:57:55.769Z,100355.03
2018-09-01T03:00:29.874Z,100354.64
2018-09-01T03:02:58.493Z,100355.40
2018-09-01T03:05:27.260Z,100353.59
2018-09-01T03:07:56.050Z,100361.22
2018-09-01T03:10:25.133Z,100361.69
2018-09-01T03:12:53.739Z,100362.16
2018-09-01T03:15:22.385Z,100365.13
2018-09-01T03:17:51.055Z,100365.89
2018-09-01T03:20:19.810Z,100367.52
2018-09-01T03:22:48.559Z,100365.49
2018-09-01T03:25:17.366Z,100363.97
2018-09-01T03:27:45.977Z,100359.97
2018-09-01T03:30:14.599Z,100363.11
2018-09-01T03:32:43.416Z,100367.59
2018-09-01T03:35:12.717Z,100372.93
2018-09-01T03:37:41.443Z,100372.07
2018-09-01T03:40:10.130Z,100368.16
2018-09-01T03:42:38.926Z,100362.56
2018-09-01T03:45:07.646Z,100369.71
2018-09-01T03:47:36.409Z,100367.05
2018-09-01T03:50:05.151Z,100368.18
2018-09-01T03:52:33.856Z,100370.84
2018-09-01T03:55:02.500Z,100376.94
2018-09-01T03:57:31.165Z,100382.84
2018-09-01T04:00:00.056Z,100384.80
2018-09-01T04:02:28.878Z,100380.45
2018-09-01T04:04:58.444Z,100390.05
2018-09-01T04:07:27.277Z,100384.70
2018-09-01T04:09:55.944Z,100389.08
2018-09-01T04:12:24.654Z,100386.98
2018-09-01T04:14:53.370Z,100390.98
2018-09-01T04:17:22.038Z,100398.42
2018-09-01T04:19:50.693Z,100400.91
2018-09-01T04:22:19.740Z,100393.29
2018-09-01T04:24:48.522Z,100401.11
2018-09-01T04:27:17.198Z,100397.02
2018-09-01T04:29:45.989Z,100398.66
2018-09-01T04:32:14.649Z,100399.77
2018-09-01T04:34:43.362Z,100393.72
2018-09-01T04:37:12.287Z,100395.07
2018-09-01T04:39:41.052Z,100394.58
2018-09-01T04:42:10.014Z,100396.79
2018-09-01T04:44:38.681Z,100390.95
2018-09-01T04:47:07.630Z,100392.77
2018-09-01T04:49:36.448Z,100402.09
2018-09-01T04:52:05.233Z,100395.52
2018-09-01T04:54:34.227Z,100401.82
2018-09-01T04:57:02.889Z,100403.70
2018-09-01T04:59:31.583Z,100402.27
2018-09-01T05:02:00.412Z,100408.38
2018-09-01T05:04:29.004Z,100410.95
2018-09-01T05:06:57.606Z,100406.47
2018-09-01T05:09:26.339Z,100403.32
2018-09-01T05:11:54.998Z,100396.73
2018-09-01T05:14:23.660Z,100402.08
2018-09-01T05:16:52.387Z,100403.41
2018-09-01T05:19:22.801Z,100403.51
2018-09-01T05:21:51.683Z,100399.50
2018-09-01T05:24:20.342Z,100403.89
2018-09-01T05:26:49.003Z,100403.03
2018-09-01T05:29:18.777Z,100403.03
2018-09-01T05:31:47.649Z,100414.48
2018-09-01T05:34:16.574Z,100418.30
2018-09-01T05:36:46.274Z,100417.16
2018-09-01T05:39:15.759Z,100417.92
2018-09-01T05:41:44.553Z,100427.53
2018-09-01T05:44:13.843Z,100429.91
2018-09-01T05:46:43.811Z,100429.44
2018-09-01T05:49:12.802Z,100433.26
2018-09-01T05:51:42.512Z,100433.73
2018-09-01T05:54:12.213Z,100427.44
2018-09-01T05:56:41.702Z,100424.57
2018-09-01T05:59:10.509Z,100416.13
2018-09-01T06:01:39.155Z,100423.60
2018-09-01T06:04:07.862Z,100418.40
2018-09-01T06:06:36.576Z,100410.80
2018-09-01T06:09:06.995Z,100422.04
2018-09-01T06:11:35.705Z,100430.27
2018-09-01T06:14:04.361Z,100430.02
2018-09-01T06:16:33.190Z,100422.68
2018-09-01T06:19:02.327Z,100432.23
2018-09-01T06:21:31.917Z,100425.91
2018-09-01T06:24:01.109Z,100426.87
2018-09-01T06:26:30.959Z,100426.59
2018-09-01T06:29:07.793Z,100428.65
2018-09-01T06:31:36.569Z,100435.34
2018-09-01T06:34:05.630Z,100432.87
2018-09-01T06:36:34.466Z,100428.77
2018-09-01T06:39:03.299Z,100423.34
2018-09-01T06:41:31.989Z,100431.71
2018-09-01T06:44:01.170Z,100431.81
2018-09-01T06:46:30.670Z,100432.87
2018-09-01T06:48:59.545Z,100432.79
2018-09-01T06:51:29.499Z,100439.20
2018-09-01T06:53:59.021Z,100433.59
2018-09-01T06:56:27.861Z,100434.80
2018-09-01T06:58:56.570Z,100435.08
2018-09-01T07:01:25.245Z,100431.73
2018-09-01T07:03:54.099Z,100427.03
2018-09-01T07:06:22.946Z,100437.92
2018-09-01T07:08:51.649Z,100444.75
2018-09-01T07:11:20.359Z,100450.47
2018-09-01T07:13:49.244Z,100461.30
2018-09-01T07:16:18.511Z,100451.39
2018-09-01T07:18:47.217Z,100448.88
2018-09-01T07:21:15.820Z,100449.42
2018-09-01T07:23:44.425Z,100450.03
2018-09-01T07:26:13.190Z,100436.93
2018-09-01T07:28:41.961Z,100442.94
2018-09-01T07:31:10.932Z,100440.26
2018-09-01T07:33:40.310Z,100444.17
2018-09-01T07:36:09.024Z,100448.67
2018-09-01T07:38:37.762Z,100447.39
2018-09-01T07:41:06.874Z,100443.82
2018-09-01T07:43:35.574Z,100446.55
2018-09-01T07:46:04.193Z,100430.95
2018-09-01T07:48:33.255Z,100433.91
2018-09-01T07:51:02.353Z,100431.39
2018-09-01T07:53:31.029Z,100431.71
2018-09-01T07:55:59.781Z,100428.33
2018-09-01T07:58:29.654Z,100422.48
2018-09-01T08:00:58.291Z,100420.92
2018-09-01T08:03:27.005Z,100431.17
2018-09-01T08:05:55.926Z,100432.02
2018-09-01T08:08:24.518Z,100432.35
2018-09-01T08:10:53.220Z,100428.19
2018-09-01T08:13:21.826Z,100430.84
2018-09-01T08:15:50.600Z,100434.00
2018-09-01T08:18:19.294Z,100438.10
2018-09-01T08:20:47.885Z,100429.34
2018-09-01T08:23:16.577Z,100430.80
2018-09-01T08:25:45.362Z,100436.00
2018-09-01T08:28:14.483Z,100433.44
2018-09-01T08:30:44.160Z,100442.86
2018-09-01T08:33:13.053Z,100440.31
2018-09-01T08:35:41.638Z,100437.78
2018-09-01T08:38:11.465Z,100431.96
2018-09-01T08:40:40.135Z,100430.97
2018-09-01T08:43:08.950Z,100439.42
2018-09-01T08:45:37.554Z,100444.46
2018-09-01T08:48:06.473Z,100444.76
2018-09-01T08:50:37.676Z,100442.39
2018-09-01T08:53:06.414Z,100453.11
2018-09-01T08:55:35.254Z,100449.75
2018-09-01T08:58:10.486Z,100446.09
2018-09-01T09:00:39.185Z,100453.33
2018-09-01T09:03:07.854Z,100463.13
2018-09-01T09:05:36.556Z,100456.28
2018-09-01T09:08:05.201Z,100459.70
2018-09-01T09:10:33.837Z,100461.28
2018-09-01T09:13:02.605Z,100456.75
2018-09-01T09:15:32.411Z,100451.17
2018-09-01T09:18:01.319Z,100460.70
2018-09-01T09:20:30.058Z,100467.88
2018-09-01T09:22:58.621Z,100464.23
2018-09-01T09:25:27.293Z,100463.92
2018-09-01T09:27:57.124Z,100463.14
2018-09-01T09:30:26.729Z,100464.47
2018-09-01T09:32:56.393Z,100463.86
2018-09-01T09:35:25.169Z,100467.39
2018-09-01T09:37:55.158Z,100465.63
2018-09-01T09:40:23.811Z,100467.20
2018-09-01T09:42:52.642Z,100466.45
2018-09-01T09:45:21.670Z,100467.67
2018-09-01T09:47:50.448Z,100464.13
2018-09-01T09:50:19.174Z,100464.63
2018-09-01T09:52:47.837Z,100469.80
2018-09-01T09:55:16.619Z,100464.34
2018-09-01T09:57:45.354Z,100469.88
2018-09-01T10:00:15.346Z,100470.30
2018-09-01T10:02:44.957Z,100477.17
2018-09-01T10:05:13.805Z,100478.19
2018-09-01T10:07:42.636Z,100478.70
2018-09-01T10:10:11.441Z,100476.14
2018-09-01T10:12:40.847Z,100476.02
2018-09-01T10:15:09.437Z,100468.19
2018-09-01T10:17:38.165Z,100467.94
2018-09-01T10:20:06.977Z,100466.11
2018-09-01T10:22:36.504Z,100455.10
2018-09-01T10:25:05.310Z,100460.23
2018-09-01T10:27:34.261Z,100456.90
2018-09-01T10:30:03.090Z,100460.33
2018-09-01T10:32:31.737Z,100460.94
2018-09-01T10:35:01.129Z,100458.11
2018-09-01T10:37:29.933Z,100454.88
2018-09-01T10:39:58.679Z,100444.78
2018-09-01T10:42:27.469Z,100448.55
2018-09-01T10:44:56.157Z,100445.14
2018-09-01T10:47:25.873Z,100446.55
2018-09-01T10:49:54.502Z,100449.04
2018-09-01T10:52:23.245Z,100449.91
2018-09-01T10:54:53.204Z,100450.03
2018-09-01T10:57:21.918Z,100439.14
2018-09-01T10:59:50.835Z,100443.55
2018-09-01T11:02:19.635Z,100441.95
2018-09-01T11:04:48.325Z,100446.80
2018-09-01T11:07:17.013Z,100452.05
2018-09-01T11:09:46.181Z,100444.94
2018-09-01T11:12:14.892Z,100443.55
2018-09-01T11:14:43.605Z,100440.59
2018-09-01T11:17:12.213Z,100441.07
2018-09-01T11:19:40.875Z,100435.19
2018-09-01T11:22:10.763Z,100439.11
2018-09-01T11:24:39.486Z,100433.72
2018-09-01T11:27:08.277Z,100425.16
2018-09-01T11:29:37.065Z,100427.38
2018-09-01T11:32:06.586Z,100430.82
2018-09-01T11:34:35.355Z,100436.98
2018-09-01T11:37:04.954Z,100434.55
2018-09-01T11:39:33.681Z,100433.94
2018-09-01T11:42:02.387Z,100434.31
2018-09-01T11:44:31.168Z,100426.41
2018-09-01T11:46:59.826Z,100439.52
2018-09-01T11:49:29.305Z,100444.53
2018-09-01T11:51:58.467Z,100445.97
2018-09-01T11:54:27.829Z,100448.08
2018-09-01T11:56:57.302Z,100449.79
2018-09-01T11:59:28.347Z,100441.71
2018-09-01T12:01:57.346Z,100437.42
2018-09-01T12:04:25.938Z,100434.59
2018-09-01T12:06:54.753Z,100434.80
2018-09-01T12:09:24.121Z,100427.56
2018-09-01T12:11:53.985Z,100438.16
2018-09-01T12:14:22.944Z,100441.22
2018-09-01T12:16:51.742Z,100442.44
2018-09-01T12:19:20.603Z,100440.34
2018-09-01T12:21:49.364Z,100440.09
2018-09-01T12:24:18.077Z,100434.16
2018-09-01T12:26:46.886Z,100433.52
2018-09-01T12:29:16.290Z,100439.22
2018-09-01T12:31:44.887Z,100431.38
2018-09-01T12:34:14.255Z,100430.10
2018-09-01T12:36:43.280Z,100423.31
2018-09-01T12:39:12.006Z,100415.95
2018-09-01T12:41:40.857Z,100416.14
2018-09-01T12:44:09.573Z,100413.46
2018-09-01T12:46:38.333Z,100414.09
2018-09-01T12:49:07.172Z,100415.81
2018-09-01T12:51:35.862Z,100409.41
2018-09-01T12:54:05.524Z,100404.65
2018-09-01T12:56:34.353Z,100402.61
2018-09-01T12:59:03.567Z,100404.32
2018-09-01T13:01:32.421Z,100409.94
2018-09-01T13:04:01.731Z,100405.22
2018-09-01T13:06:30.602Z,100417.73
2018-09-01T13:08:59.565Z,100419.31
2018-09-01T13:11:28.282Z,100416.33
2018-09-01T13:13:57.218Z,100408.66
2018-09-01T13:16:26.996Z,100418.83
2018-09-01T13:18:57.355Z,100415.50
2018-09-01T13:21:26.096Z,100405.45
2018-09-01T13:23:55.013Z,100409.48
2018-09-01T13:26:23.652Z,100412.67
2018-09-01T13:28:52.340Z,100406.28
2018-09-01T13:31:21.030Z,100402.27
2018-09-01T13:33:50.281Z,100412.06
2018-09-01T13:36:19.110Z,100404.42
2018-09-01T13:38:48.782Z,100393.27
2018-09-01T13:41:17.838Z,100390.43
2018-09-01T13:43:46.429Z,100395.91
2018-09-01T13:46:16.331Z,100395.42
2018-09-01T13:48:45.014Z,100396.33
2018-09-01T13:51:13.638Z,100407.53
2018-09-01T13:53:42.214Z,100403.97
2018-09-01T13:56:10.846Z,100409.10
2018-09-01T13:58:39.691Z,100412.81
2018-09-01T14:01:08.465Z,100424.66
2018-09-01T14:03:37.105Z,100425.12
2018-09-01T14:06:05.886Z,100424.13
2018-09-01T14:08:34.633Z,100422.09
2018-09-01T14:11:03.413Z,100428.53
2018-09-01T14:13:33.141Z,100417.14
2018-09-01T14:16:01.831Z,100416.23
2018-09-01T14:18:30.534Z,100414.55
2018-09-01T14:20:59.395Z,100410.27
2018-09-01T14:23:28.146Z,100407.71
2018-09-01T14:25:56.811Z,100411.62
2018-09-01T14:28:25.645Z,100401.70
2018-09-01T14:30:54.495Z,100401.70
2018-09-01T14:33:24.536Z,100397.17
2018-09-01T14:35:53.238Z,100400.59
2018-09-01T14:38:21.899Z,100396.91
2018-09-01T14:40:50.568Z,100402.43
2018-09-01T14:43:20.414Z,100394.11
2018-09-01T14:45:50.140Z,100401.03
2018-09-01T14:48:20.005Z,100396.39
2018-09-01T14:50:48.752Z,100399.95
2018-09-01T14:53:17.544Z,100401.43
2018-09-01T14:55:46.327Z,100394.45
2018-09-01T14:58:15.151Z,100389.23
2018-09-01T15:00:44.235Z,100387.16
2018-09-01T15:03:13.110Z,100389.00
2018-09-01T15:05:41.858Z,100384.23
2018-09-01T15:08:10.518Z,100389.50
2018-09-01T15:10:39.427Z,100396.98
2018-09-01T15:13:08.277Z,100397.88
2018-09-01T15:15:40.968Z,100393.00
2018-09-01T15:18:09.741Z,100397.02
2018-09-01T15:20:38.416Z,100399.11
2018-09-01T15:23:07.085Z,100402.81
2018-09-01T15:25:35.708Z,100389.60
2018-09-01T15:28:04.465Z,100384.47
2018-09-01T15:30:33.175Z,100388.02
2018-09-01T15:33:01.813Z,100393.03
2018-09-01T15:35:30.734Z,100392.67
2018-09-01T15:38:00.076Z,100392.18
2018-09-01T15:40:29.685Z,100394.62
2018-09-01T15:42:58.558Z,100388.27
2018-09-01T15:45:28.678Z,100396.87
2018-09-01T15:47:57.870Z,100393.09
2018-09-01T15:50:26.709Z,100391.38
2018-09-01T15:56:50.961Z,100392.97
2018-09-01T15:59:53.740Z,100383.06
2018-09-01T16:02:22.749Z,100388.97
2018-09-01T16:04:53.433Z,100392.52
2018-09-01T16:07:22.180Z,100398.54
2018-09-01T16:09:51.128Z,100402.94
2018-09-01T16:12:20.073Z,100398.28
2018-09-01T16:14:48.728Z,100399.17
2018-09-01T16:17:17.546Z,100406.34
2018-09-01T16:19:46.555Z,100413.91
2018-09-01T16:22:15.224Z,100416.00
2018-09-01T16:24:44.016Z,100429.44
2018-09-01T16:27:12.633Z,100419.63
2018-09-01T16:29:41.382Z,100420.36
2018-09-01T16:38:11.930Z,100432.18
2018-09-01T16:40:40.634Z,100441.99
2018-09-01T16:43:09.557Z,100444.37
2018-09-01T16:45:38.441Z,100440.39
2018-09-01T16:48:06.657Z,100448.37
2018-09-01T16:50:35.423Z,100442.73
2018-09-01T16:53:04.332Z,100446.57
2018-09-01T16:55:33.421Z,100445.88
2018-09-01T16:58:03.740Z,100444.13
2018-09-01T17:00:33.067Z,100451.14
2018-09-01T17:03:01.752Z,100451.77
2018-09-01T17:05:30.558Z,100453.97
2018-09-01T17:07:59.536Z,100456.59
2018-09-01T17:10:30.249Z,100457.16
2018-09-01T17:12:59.479Z,100458.31
2018-09-01T17:15:28.333Z,100452.69
2018-09-01T17:17:57.742Z,100453.26
2018-09-01T17:20:26.490Z,100459.18
2018-09-01T17:22:55.182Z,100452.22
2018-09-01T17:25:24.444Z,100458.27
2018-09-01T17:27:54.381Z,100455.69
2018-09-01T17:30:23.498Z,100458.36
2018-09-01T17:32:53.170Z,100454.92
2018-09-01T17:35:23.016Z,100451.48
2018-09-01T17:37:52.280Z,100455.98
2018-09-01T17:40:21.001Z,100454.35
2018-09-01T17:42:49.805Z,100449.00
2018-09-01T17:45:18.534Z,100448.21
2018-09-01T17:47:48.225Z,100455.27
2018-09-01T17:50:16.889Z,100451.84
2018-09-01T17:52:45.573Z,100447.45
2018-09-01T17:55:14.475Z,100451.68
2018-09-01T17:57:43.203Z,100449.96
2018-09-01T18:00:11.893Z,100448.62
2018-09-01T18:02:40.838Z,100456.27
2018-09-01T18:05:09.711Z,100453.78
2018-09-01T18:07:39.574Z,100453.97
2018-09-01T18:10:08.484Z,100457.98
2018-09-01T18:12:37.159Z,100453.49
2018-09-01T18:15:06.148Z,100450.34
2018-09-01T18:17:34.985Z,100449.96
2018-09-01T18:20:03.678Z,100452.63
2018-09-01T18:22:32.478Z,100453.97
2018-09-01T18:25:01.191Z,100453.97
2018-09-01T18:27:29.866Z,100450.53
2018-09-01T18:29:58.613Z,100461.22
2018-09-01T18:32:27.290Z,100458.17
2018-09-01T18:34:55.997Z,100456.92
2018-09-01T18:37:25.798Z,100468.09
2018-09-01T18:39:54.484Z,100462.02
2018-09-01T18:42:23.245Z,100463.83
2018-09-01T18:44:52.145Z,100461.82
2018-09-01T18:47:20.883Z,100462.48
2018-09-01T18:49:49.569Z,100466.30
2018-09-01T18:52:18.453Z,100458.59
2018-09-01T18:54:47.341Z,100460.88
2018-09-01T18:57:16.214Z,100460.59
2018-09-01T18:59:44.897Z,100467.36
2018-09-01T19:02:13.911Z,100462.59
2018-09-01T19:04:42.692Z,100463.92
2018-09-01T19:07:11.368Z,100469.84
2018-09-01T19:09:40.640Z,100469.84
2018-09-01T19:12:09.611Z,100466.78
2018-09-01T19:14:38.264Z,100464.39
2018-09-01T19:17:08.069Z,100455.35
2018-09-01T19:19:37.711Z,100461.83
2018-09-01T19:22:06.378Z,100461.63
2018-09-01T19:24:35.083Z,100459.70
2018-09-01T19:27:04.354Z,100462.11
2018-09-01T19:29:33.164Z,100463.54
2018-09-01T19:32:01.917Z,100466.78
2018-09-01T19:34:30.754Z,100471.16
2018-09-01T19:36:59.462Z,100471.64
2018-09-01T19:39:28.144Z,100471.73
2018-09-01T19:41:56.868Z,100481.94
2018-09-01T19:44:25.571Z,100482.98
2018-09-01T19:46:54.381Z,100484.78
2018-09-01T19:49:23.195Z,100486.98
2018-09-01T19:51:52.558Z,100484.70
2018-09-01T19:54:22.060Z,100484.31
2018-09-01T19:56:50.817Z,100479.53
2018-09-01T19:59:19.930Z,100491.64
2018-09-01T20:01:50.021Z,100498.79
2018-09-01T20:04:19.680Z,100496.68
2018-09-01T20:06:49.509Z,100509.65
2018-09-01T20:09:20.025Z,100511.58
2018-09-01T20:11:49.881Z,100513.47
2018-09-01T20:14:18.773Z,100519.94
2018-09-01T20:16:49.646Z,100525.84
2018-09-01T20:19:19.180Z,100530.49
2018-09-01T20:21:49.517Z,100536.45
2018-09-01T20:24:20.616Z,100550.08
2018-09-01T20:26:49.337Z,100563.69
2018-09-01T20:29:18.042Z,100556.80
2018-09-01T20:31:46.903Z,100568.59
2018-09-01T20:34:25.587Z,100564.02
2018-09-01T20:36:54.546Z,100570.46
2018-09-01T20:39:24.457Z,100576.44
2018-09-01T20:41:53.313Z,100579.19
2018-09-01T20:44:22.037Z,100577.08
2018-09-01T20:46:50.634Z,100569.28
2018-09-01T20:49:19.521Z,100566.78
2018-09-01T21:11:55.519Z,100545.72
2018-09-01T21:21:50.235Z,100529.70
2018-09-01T21:24:18.986Z,100520.38
2018-09-01T21:36:51.070Z,100513.48
2018-09-01T22:02:46.651Z,100482.22
2018-09-01T22:05:15.523Z,100483.39
2018-09-01T22:07:44.624Z,100478.45
2018-09-01T22:10:13.209Z,100474.29
2018-09-01T22:12:41.889Z,100482.20
2018-09-01T22:15:10.570Z,100472.95
2018-09-01T22:17:39.384Z,100471.23
2018-09-01T22:20:08.165Z,100477.34
2018-09-01T22:22:36.789Z,100472.18
2018-09-01T22:25:05.610Z,100460.05
2018-09-01T22:27:34.322Z,100470.70
2018-09-01T22:30:03.165Z,100469.48
2018-09-01T22:32:32.035Z,100471.42
2018-09-01T22:35:00.769Z,100471.98
2018-09-01T22:37:29.485Z,100472.61
2018-09-01T22:39:58.245Z,100470.58
2018-09-01T22:42:27.030Z,100452.60
2018-09-01T22:44:57.353Z,100453.16
2018-09-01T22:47:28.405Z,100445.55
2018-09-01T22:49:57.149Z,100450.87
2018-09-01T22:52:26.393Z,100456.84
2018-09-01T22:54:55.171Z,100459.59
2018-09-01T22:57:23.852Z,100472.98
2018-09-01T22:59:52.517Z,100461.94
2018-09-01T23:02:21.129Z,100452.31
2018-09-01T23:04:49.893Z,100451.92
2018-09-01T23:07:18.510Z,100450.59
2018-09-01T23:09:47.116Z,100454.59
2018-09-01T23:12:15.773Z,100445.81
2018-09-01T23:14:44.550Z,100448.00
2018-09-01T23:17:14.093Z,100444.09
2018-09-01T23:19:43.861Z,100446.75
2018-09-01T23:22:12.617Z,100431.25
2018-09-01T23:24:41.220Z,100430.03
2018-09-01T23:27:09.909Z,100433.83
2018-09-01T23:29:38.558Z,100440.48
2018-09-01T23:32:07.296Z,100436.88
2018-09-01T23:34:36.092Z,100436.88
2018-09-01T23:37:04.816Z,100444.88
2018-09-01T23:39:33.443Z,100445.27
2018-09-01T23:42:02.197Z,100457.64
2018-09-01T23:44:30.838Z,100456.30
2018-09-01T23:46:59.730Z,100448.78
2018-09-01T23:49:28.603Z,100458.11
2018-09-01T23:51:57.369Z,100450.59
2018-09-01T23:54:26.275Z,100453.64
2018-09-01T23:56:55.005Z,100440.41
2018-09-01T23:59:23.749Z,100448.31
